createdAt,value
2018-04-27T00:00:49.240Z,1011.41
2018-04-27T00:01:49.148Z,1011.35
2018-04-27T00:02:49.164Z,1011.36
2018-04-27T00:03:49.082Z,1011.35
2018-04-27T00:04:49.076Z,1011.34
2018-04-27T00:05:48.997Z,1011.34
2018-04-27T00:06:48.957Z,1011.30
2018-04-27T00:07:48.907Z,1011.35
2018-04-27T00:08:48.891Z,1011.34
2018-04-27T00:09:48.813Z,1011.37
2018-04-27T00:10:48.810Z,1011.30
2018-04-27T00:11:48.734Z,1011.33
2018-04-27T00:12:48.700Z,1011.30
2018-04-27T00:13:48.652Z,1011.28
2018-04-27T00:14:48.613Z,1011.25
2018-04-27T00:15:48.587Z,1011.30
2018-04-27T00:16:48.530Z,1011.28
2018-04-27T00:17:48.473Z,1011.27
2018-04-27T00:18:48.435Z,1011.26
2018-04-27T00:19:48.389Z,1011.25
2018-04-27T00:20:48.392Z,1011.26
2018-04-27T00:21:48.314Z,1011.24
2018-04-27T00:22:48.262Z,1011.22
2018-04-27T00:23:48.305Z,1011.18
2018-04-27T00:24:48.213Z,1011.18
2018-04-27T00:25:48.168Z,1011.20
2018-04-27T00:26:48.080Z,1011.14
2018-04-27T00:27:48.096Z,1011.18
2018-04-27T00:28:48.033Z,1011.18
2018-04-27T00:29:47.997Z,1011.17
2018-04-27T00:30:47.942Z,1011.14
2018-04-27T00:31:47.914Z,1011.18
2018-04-27T00:32:47.896Z,1011.13
2018-04-27T00:33:47.798Z,1011.12
2018-04-27T00:34:47.781Z,1011.12
2018-04-27T00:35:47.704Z,1011.16
2018-04-27T00:36:47.696Z,1011.18
2018-04-27T00:37:47.632Z,1011.13
2018-04-27T00:38:47.579Z,1011.14
2018-04-27T00:39:47.537Z,1011.16
2018-04-27T00:40:47.496Z,1011.11
2018-04-27T00:41:47.477Z,1011.13
2018-04-27T00:42:47.403Z,1011.14
2018-04-27T00:43:47.373Z,1011.13
2018-04-27T00:44:47.342Z,1011.12
2018-04-27T00:45:47.325Z,1011.12
2018-04-27T00:46:47.302Z,1011.10
2018-04-27T00:47:48.147Z,1011.07
2018-04-27T00:48:47.201Z,1011.06
2018-04-27T00:49:47.108Z,1011.04
2018-04-27T00:50:47.079Z,1011.03
2018-04-27T00:51:47.067Z,1011.07
2018-04-27T00:52:46.983Z,1011.05
2018-04-27T00:53:46.946Z,1011.00
2018-04-27T00:54:46.901Z,1011.02
2018-04-27T00:55:46.854Z,1011.00
2018-04-27T00:56:46.838Z,1011.03
2018-04-27T00:57:46.793Z,1011.06
2018-04-27T00:58:46.746Z,1011.05
2018-04-27T00:59:46.697Z,1011.05
2018-04-27T01:00:46.678Z,1011.07
2018-04-27T01:01:46.656Z,1011.08
2018-04-27T01:02:46.571Z,1011.09
2018-04-27T01:03:46.550Z,1011.05
2018-04-27T01:04:46.503Z,1011.03
2018-04-27T01:05:46.451Z,1010.99
2018-04-27T01:06:46.428Z,1010.99
2018-04-27T01:07:46.373Z,1011.01
2018-04-27T01:08:46.310Z,1010.97
2018-04-27T01:09:46.271Z,1010.97
2018-04-27T01:10:46.223Z,1010.98
2018-04-27T01:11:46.194Z,1010.96
2018-04-27T01:12:46.123Z,1010.97
2018-04-27T01:13:46.080Z,1010.93
2018-04-27T01:14:46.049Z,1010.92
2018-04-27T01:15:46.017Z,1010.90
2018-04-27T01:16:46.002Z,1010.86
2018-04-27T01:17:45.922Z,1010.88
2018-04-27T01:18:45.884Z,1010.89
2018-04-27T01:19:45.828Z,1010.83
2018-04-27T01:20:45.826Z,1010.87
2018-04-27T01:21:45.750Z,1010.86
2018-04-27T01:22:45.698Z,1010.85
2018-04-27T01:23:45.674Z,1010.90
2018-04-27T01:24:45.620Z,1010.90
2018-04-27T01:25:45.622Z,1010.89
2018-04-27T01:26:45.560Z,1010.87
2018-04-27T01:27:45.497Z,1010.89
2018-04-27T01:28:45.450Z,1010.92
2018-04-27T01:29:45.432Z,1010.92
2018-04-27T01:30:45.388Z,1010.93
2018-04-27T01:31:45.333Z,1010.92
2018-04-27T01:32:45.273Z,1010.94
2018-04-27T01:33:45.266Z,1010.88
2018-04-27T01:34:45.194Z,1010.90
2018-04-27T01:35:45.183Z,1010.90
2018-04-27T01:36:45.113Z,1010.86
2018-04-27T01:37:45.086Z,1010.81
2018-04-27T01:38:45.017Z,1010.80
2018-04-27T01:39:44.977Z,1010.81
2018-04-27T01:40:44.969Z,1010.78
2018-04-27T01:41:44.922Z,1010.80
2018-04-27T01:42:44.849Z,1010.82
2018-04-27T01:43:44.821Z,1010.84
2018-04-27T01:44:44.772Z,1010.77
2018-04-27T01:45:44.741Z,1010.81
2018-04-27T01:46:44.680Z,1010.80
2018-04-27T01:47:44.644Z,1010.77
2018-04-27T01:48:44.602Z,1010.74
2018-04-27T01:49:44.561Z,1010.73
2018-04-27T01:50:44.557Z,1010.75
2018-04-27T01:51:44.468Z,1010.73
2018-04-27T01:52:44.436Z,1010.72
2018-04-27T01:53:44.382Z,1010.71
2018-04-27T01:54:44.366Z,1010.72
2018-04-27T01:55:44.306Z,1010.65
2018-04-27T01:56:44.275Z,1010.67
2018-04-27T01:57:44.226Z,1010.65
2018-04-27T01:58:44.173Z,1010.64
2018-04-27T01:59:44.159Z,1010.61
2018-04-27T02:00:44.096Z,1010.62
2018-04-27T02:01:44.046Z,1010.68
2018-04-27T02:02:44.029Z,1010.67
2018-04-27T02:03:43.957Z,1010.68
2018-04-27T02:04:43.946Z,1010.64
2018-04-27T02:05:43.883Z,1010.62
2018-04-27T02:06:43.822Z,1010.60
2018-04-27T02:07:43.795Z,1010.58
2018-04-27T02:08:43.744Z,1010.55
2018-04-27T02:09:43.728Z,1010.55
2018-04-27T02:10:43.637Z,1010.53
2018-04-27T02:11:43.585Z,1010.53
2018-04-27T02:12:43.549Z,1010.55
2018-04-27T02:13:43.505Z,1010.53
2018-04-27T02:14:43.500Z,1010.53
2018-04-27T02:15:43.430Z,1010.58
2018-04-27T02:16:43.383Z,1010.59
2018-04-27T02:17:43.376Z,1010.57
2018-04-27T02:18:43.291Z,1010.58
2018-04-27T02:19:43.278Z,1010.59
2018-04-27T02:20:43.207Z,1010.58
2018-04-27T02:21:43.159Z,1010.58
2018-04-27T02:22:43.123Z,1010.57
2018-04-27T02:23:43.080Z,1010.57
2018-04-27T02:24:43.059Z,1010.53
2018-04-27T02:25:42.999Z,1010.52
2018-04-27T02:26:42.963Z,1010.51
2018-04-27T02:27:42.923Z,1010.46
2018-04-27T02:28:42.888Z,1010.51
2018-04-27T02:29:42.869Z,1010.48
2018-04-27T02:30:42.781Z,1010.48
2018-04-27T02:31:42.770Z,1010.49
2018-04-27T02:32:42.717Z,1010.49
2018-04-27T02:33:42.684Z,1010.43
2018-04-27T02:34:42.622Z,1010.43
2018-04-27T02:35:42.585Z,1010.41
2018-04-27T02:36:42.553Z,1010.40
2018-04-27T02:37:42.522Z,1010.38
2018-04-27T02:38:42.467Z,1010.36
2018-04-27T02:39:42.398Z,1010.36
2018-04-27T02:40:42.352Z,1010.38
2018-04-27T02:41:42.320Z,1010.37
2018-04-27T02:42:42.306Z,1010.36
2018-04-27T02:43:42.251Z,1010.37
2018-04-27T02:44:42.192Z,1010.32
2018-04-27T02:45:42.145Z,1010.34
2018-04-27T02:46:42.099Z,1010.32
2018-04-27T02:47:42.072Z,1010.32
2018-04-27T02:48:42.053Z,1010.34
2018-04-27T02:49:41.961Z,1010.33
2018-04-27T02:50:41.941Z,1010.32
2018-04-27T02:51:41.890Z,1010.31
2018-04-27T02:52:41.893Z,1010.28
2018-04-27T02:53:41.827Z,1010.28
2018-04-27T02:54:41.774Z,1010.28
2018-04-27T02:55:41.707Z,1010.24
2018-04-27T02:56:41.709Z,1010.26
2018-04-27T02:57:41.638Z,1010.27
2018-04-27T02:58:41.623Z,1010.30
2018-04-27T02:59:41.584Z,1010.24
2018-04-27T03:00:41.526Z,1010.22
2018-04-27T03:01:41.460Z,1010.28
2018-04-27T03:02:41.428Z,1010.27
2018-04-27T03:03:41.394Z,1010.26
2018-04-27T03:04:41.339Z,1010.27
2018-04-27T03:05:41.325Z,1010.26
2018-04-27T03:06:41.249Z,1010.28
2018-04-27T03:07:41.254Z,1010.23
2018-04-27T03:08:41.206Z,1010.23
2018-04-27T03:09:41.123Z,1010.20
2018-04-27T03:10:41.077Z,1010.20
2018-04-27T03:11:41.041Z,1010.19
2018-04-27T03:12:41.005Z,1010.19
2018-04-27T03:13:40.944Z,1010.19
2018-04-27T03:14:40.947Z,1010.20
2018-04-27T03:15:40.865Z,1010.18
2018-04-27T03:16:40.819Z,1010.21
2018-04-27T03:17:40.777Z,1010.18
2018-04-27T03:18:40.744Z,1010.17
2018-04-27T03:19:40.729Z,1010.16
2018-04-27T03:20:40.667Z,1010.17
2018-04-27T03:21:40.646Z,1010.13
2018-04-27T03:22:40.596Z,1010.11
2018-04-27T03:23:40.570Z,1010.14
2018-04-27T03:24:40.508Z,1010.09
2018-04-27T03:25:40.439Z,1010.11
2018-04-27T03:26:40.453Z,1010.08
2018-04-27T03:27:40.364Z,1010.02
2018-04-27T03:28:40.328Z,1010.04
2018-04-27T03:29:40.343Z,1010.01
2018-04-27T03:30:40.237Z,1010.00
2018-04-27T03:31:40.208Z,1010.02
2018-04-27T03:32:40.196Z,1010.01
2018-04-27T03:33:40.123Z,1010.01
2018-04-27T03:34:40.106Z,1010.03
2018-04-27T03:35:40.029Z,1010.01
2018-04-27T03:36:39.986Z,1010.01
2018-04-27T03:37:39.946Z,1009.96
2018-04-27T03:38:39.897Z,1009.96
2018-04-27T03:39:39.861Z,1009.90
2018-04-27T03:40:39.831Z,1009.90
2018-04-27T03:41:39.773Z,1009.91
2018-04-27T03:42:39.760Z,1009.90
2018-04-27T03:43:39.684Z,1009.95
2018-04-27T03:44:39.637Z,1009.93
2018-04-27T03:45:39.622Z,1009.92
2018-04-27T03:46:39.572Z,1009.87
2018-04-27T03:47:39.514Z,1009.89
2018-04-27T03:48:39.479Z,1009.87
2018-04-27T03:49:39.430Z,1009.84
2018-04-27T03:50:39.409Z,1009.82
2018-04-27T03:51:39.358Z,1009.80
2018-04-27T03:52:39.319Z,1009.82
2018-04-27T03:53:39.265Z,1009.81
2018-04-27T03:54:39.240Z,1009.72
2018-04-27T03:55:39.197Z,1009.75
2018-04-27T03:56:39.133Z,1009.74
2018-04-27T03:57:39.086Z,1009.72
2018-04-27T03:58:39.059Z,1009.72
2018-04-27T03:59:39.075Z,1009.71
2018-04-27T04:00:39.009Z,1009.70
2018-04-27T04:01:38.964Z,1009.69
2018-04-27T04:02:38.882Z,1009.68
2018-04-27T04:03:38.888Z,1009.73
2018-04-27T04:04:38.867Z,1009.67
2018-04-27T04:05:38.794Z,1009.61
2018-04-27T04:06:38.757Z,1009.62
2018-04-27T04:07:38.684Z,1009.63
2018-04-27T04:08:38.628Z,1009.64
2018-04-27T04:09:38.583Z,1009.63
2018-04-27T04:10:38.581Z,1009.69
2018-04-27T04:11:38.527Z,1009.66
2018-04-27T04:12:38.453Z,1009.63
2018-04-27T04:13:38.418Z,1009.66
2018-04-27T04:14:38.370Z,1009.66
2018-04-27T04:15:38.321Z,1009.64
2018-04-27T04:16:38.346Z,1009.61
2018-04-27T04:17:38.240Z,1009.59
2018-04-27T04:18:38.190Z,1009.59
2018-04-27T04:19:38.183Z,1009.58
2018-04-27T04:20:38.130Z,1009.58
2018-04-27T04:21:38.093Z,1009.57
2018-04-27T04:22:38.033Z,1009.54
2018-04-27T04:23:37.988Z,1009.57
2018-04-27T04:24:38.004Z,1009.57
2018-04-27T04:25:37.893Z,1009.59
2018-04-27T04:26:37.901Z,1009.55
2018-04-27T04:27:37.840Z,1009.55
2018-04-27T04:28:37.788Z,1009.53
2018-04-27T04:29:37.745Z,1009.58
2018-04-27T04:30:37.676Z,1009.57
2018-04-27T04:31:37.636Z,1009.54
2018-04-27T04:32:37.616Z,1009.58
2018-04-27T04:33:37.570Z,1009.52
2018-04-27T04:34:37.521Z,1009.51
2018-04-27T04:35:37.478Z,1009.54
2018-04-27T04:36:37.435Z,1009.54
2018-04-27T04:37:37.414Z,1009.54
2018-04-27T04:38:37.358Z,1009.53
2018-04-27T04:39:37.302Z,1009.49
2018-04-27T04:40:37.265Z,1009.52
2018-04-27T04:41:37.211Z,1009.51
2018-04-27T04:42:37.193Z,1009.51
2018-04-27T04:43:37.146Z,1009.46
2018-04-27T04:44:37.137Z,1009.49
2018-04-27T04:45:37.044Z,1009.45
2018-04-27T04:46:37.015Z,1009.49
2018-04-27T04:47:36.997Z,1009.45
2018-04-27T04:48:36.996Z,1009.43
2018-04-27T04:49:36.899Z,1009.45
2018-04-27T04:50:36.860Z,1009.41
2018-04-27T04:51:36.800Z,1009.40
2018-04-27T04:52:36.788Z,1009.38
2018-04-27T04:53:36.773Z,1009.41
2018-04-27T04:54:36.669Z,1009.41
2018-04-27T04:55:36.624Z,1009.37
2018-04-27T04:56:36.608Z,1009.39
2018-04-27T04:57:36.588Z,1009.34
2018-04-27T04:58:36.514Z,1009.36
2018-04-27T04:59:36.462Z,1009.37
2018-04-27T05:00:36.409Z,1009.33
2018-04-27T05:01:36.363Z,1009.33
2018-04-27T05:02:36.319Z,1009.29
2018-04-27T05:03:36.322Z,1009.31
2018-04-27T05:04:36.228Z,1009.29
2018-04-27T05:05:36.185Z,1009.31
2018-04-27T05:06:36.165Z,1009.32
2018-04-27T05:07:36.127Z,1009.39
2018-04-27T05:08:36.097Z,1009.38
2018-04-27T05:09:36.039Z,1009.41
2018-04-27T05:10:36.027Z,1009.36
2018-04-27T05:11:35.978Z,1009.37
2018-04-27T05:12:35.917Z,1009.38
2018-04-27T05:13:35.935Z,1009.36
2018-04-27T05:14:35.841Z,1009.34
2018-04-27T05:15:35.771Z,1009.35
2018-04-27T05:16:35.779Z,1009.33
2018-04-27T05:17:35.698Z,1009.35
2018-04-27T05:18:35.684Z,1009.33
2018-04-27T05:19:35.605Z,1009.32
2018-04-27T05:20:35.574Z,1009.31
2018-04-27T05:21:35.525Z,1009.32
2018-04-27T05:22:35.476Z,1009.35
2018-04-27T05:23:35.453Z,1009.32
2018-04-27T05:24:35.422Z,1009.36
2018-04-27T05:25:35.351Z,1009.33
2018-04-27T05:26:35.317Z,1009.31
2018-04-27T05:27:35.272Z,1009.32
2018-04-27T05:28:35.234Z,1009.31
2018-04-27T05:29:35.225Z,1009.32
2018-04-27T05:30:35.150Z,1009.33
2018-04-27T05:31:35.110Z,1009.36
2018-04-27T05:32:35.069Z,1009.40
2018-04-27T05:33:35.033Z,1009.43
2018-04-27T05:34:35.013Z,1009.43
2018-04-27T05:35:34.975Z,1009.45
2018-04-27T05:36:34.903Z,1009.46
2018-04-27T05:37:34.855Z,1009.50
2018-04-27T05:38:34.824Z,1009.46
2018-04-27T05:39:34.805Z,1009.53
2018-04-27T05:40:34.795Z,1009.46
2018-04-27T05:41:34.715Z,1009.48
2018-04-27T05:42:34.694Z,1009.44
2018-04-27T05:43:34.651Z,1009.48
2018-04-27T05:44:34.593Z,1009.50
2018-04-27T05:45:34.562Z,1009.48
2018-04-27T05:46:34.511Z,1009.44
2018-04-27T05:47:34.481Z,1009.46
2018-04-27T05:48:34.433Z,1009.48
2018-04-27T05:49:34.376Z,1009.51
2018-04-27T05:50:34.379Z,1009.44
2018-04-27T05:51:34.294Z,1009.48
2018-04-27T05:52:34.253Z,1009.51
2018-04-27T05:53:34.211Z,1009.50
2018-04-27T05:54:34.178Z,1009.51
2018-04-27T05:55:34.220Z,1009.53
2018-04-27T05:56:34.114Z,1009.54
2018-04-27T05:57:34.082Z,1009.55
2018-04-27T05:58:34.022Z,1009.58
2018-04-27T05:59:33.978Z,1009.63
2018-04-27T06:00:33.963Z,1009.60
2018-04-27T06:01:33.914Z,1009.57
2018-04-27T06:02:33.857Z,1009.56
2018-04-27T06:03:33.831Z,1009.56
2018-04-27T06:04:33.856Z,1009.54
2018-04-27T06:05:33.743Z,1009.56
2018-04-27T06:06:33.749Z,1009.58
2018-04-27T06:07:33.691Z,1009.66
2018-04-27T06:08:33.626Z,1009.63
2018-04-27T06:09:33.599Z,1009.66
2018-04-27T06:10:33.553Z,1009.69
2018-04-27T06:11:33.551Z,1009.69
2018-04-27T06:12:33.487Z,1009.61
2018-04-27T06:13:33.463Z,1009.63
2018-04-27T06:14:33.425Z,1009.63
2018-04-27T06:15:34.190Z,1009.67
2018-04-27T06:16:33.363Z,1009.63
2018-04-27T06:17:33.302Z,1009.64
2018-04-27T06:18:33.265Z,1009.63
2018-04-27T06:19:33.229Z,1009.62
2018-04-27T06:20:33.191Z,1009.58
2018-04-27T06:21:33.177Z,1009.57
2018-04-27T06:22:33.136Z,1009.62
2018-04-27T06:23:33.085Z,1009.76
2018-04-27T06:24:33.045Z,1009.94
2018-04-27T06:25:33.011Z,1009.79
2018-04-27T06:26:32.980Z,1009.77
2018-04-27T06:27:32.970Z,1009.83
2018-04-27T06:28:32.909Z,1009.62
2018-04-27T06:29:32.865Z,1009.70
2018-04-27T06:30:32.837Z,1009.78
2018-04-27T06:31:32.797Z,1009.79
2018-04-27T06:32:32.789Z,1009.62
2018-04-27T06:33:32.745Z,1009.57
2018-04-27T06:34:32.701Z,1009.69
2018-04-27T06:35:32.656Z,1009.56
2018-04-27T06:36:32.611Z,1009.78
2018-04-27T06:37:32.612Z,1009.60
2018-04-27T06:38:32.546Z,1009.59
2018-04-27T06:39:32.527Z,1009.67
2018-04-27T06:40:32.480Z,1009.82
2018-04-27T06:41:32.462Z,1009.78
2018-04-27T06:42:32.441Z,1009.75
2018-04-27T06:43:32.403Z,1009.74
2018-04-27T06:44:32.342Z,1009.69
2018-04-27T06:45:32.322Z,1009.66
2018-04-27T06:46:32.304Z,1009.56
2018-04-27T06:47:32.231Z,1009.61
2018-04-27T06:48:32.241Z,1009.81
2018-04-27T06:49:32.166Z,1009.82
2018-04-27T06:50:32.132Z,1009.76
2018-04-27T06:51:32.112Z,1009.80
2018-04-27T06:52:32.042Z,1010.00
2018-04-27T06:53:32.037Z,1009.90
2018-04-27T06:54:31.981Z,1009.67
2018-04-27T06:55:31.956Z,1009.78
2018-04-27T06:56:31.929Z,1009.80
2018-04-27T06:57:31.904Z,1009.87
2018-04-27T06:58:31.890Z,1009.81
2018-04-27T06:59:31.875Z,1009.89
2018-04-27T07:00:31.755Z,1009.87
2018-04-27T07:01:31.717Z,1010.10
2018-04-27T07:02:31.713Z,1010.04
2018-04-27T07:03:31.723Z,1010.20
2018-04-27T07:04:31.642Z,1010.10
2018-04-27T07:05:31.607Z,1009.79
2018-04-27T07:06:31.557Z,1009.64
2018-04-27T07:07:31.533Z,1009.53
2018-04-27T07:08:31.499Z,1009.54
2018-04-27T07:09:31.445Z,1009.51
2018-04-27T07:10:31.404Z,1009.42
2018-04-27T07:11:31.372Z,1009.38
2018-04-27T07:12:31.370Z,1009.45
2018-04-27T07:13:31.431Z,1009.40
2018-04-27T07:14:31.297Z,1009.36
2018-04-27T07:15:31.256Z,1009.31
2018-04-27T07:16:31.341Z,1009.30
2018-04-27T07:17:31.173Z,1009.28
2018-04-27T07:18:31.174Z,1009.17
2018-04-27T07:19:31.131Z,1009.12
2018-04-27T07:20:31.067Z,1009.11
2018-04-27T07:21:31.036Z,1009.10
2018-04-27T07:22:30.991Z,1009.11
2018-04-27T07:23:30.978Z,1009.10
2018-04-27T07:24:30.946Z,1009.12
2018-04-27T07:25:30.872Z,1009.10
2018-04-27T07:26:30.855Z,1009.18
2018-04-27T07:27:30.800Z,1009.21
2018-04-27T07:28:30.768Z,1009.18
2018-04-27T07:29:30.748Z,1009.23
2018-04-27T07:30:30.692Z,1009.17
2018-04-27T07:31:30.661Z,1009.08
2018-04-27T07:32:30.626Z,1009.05
2018-04-27T07:33:30.611Z,1009.04
2018-04-27T07:34:30.574Z,1008.93
2018-04-27T07:35:30.519Z,1008.95
2018-04-27T07:36:30.491Z,1008.94
2018-04-27T07:37:30.460Z,1008.88
2018-04-27T07:38:30.404Z,1008.85
2018-04-27T07:39:30.419Z,1008.87
2018-04-27T07:40:30.335Z,1008.86
2018-04-27T07:41:30.311Z,1008.90
2018-04-27T07:42:30.262Z,1008.82
2018-04-27T07:43:30.258Z,1008.88
2018-04-27T07:44:30.192Z,1008.80
2018-04-27T07:45:30.188Z,1008.82
2018-04-27T07:46:30.132Z,1008.82
2018-04-27T07:47:30.100Z,1008.86
2018-04-27T07:48:30.051Z,1008.82
2018-04-27T07:49:30.013Z,1008.78
2018-04-27T07:50:30.007Z,1008.86
2018-04-27T07:51:29.949Z,1008.86
2018-04-27T07:52:29.902Z,1008.89
2018-04-27T07:53:29.884Z,1008.87
2018-04-27T07:54:29.846Z,1009.02
2018-04-27T07:55:29.844Z,1008.90
2018-04-27T07:56:29.760Z,1008.86
2018-04-27T07:57:29.721Z,1008.86
2018-04-27T07:58:29.688Z,1008.90
2018-04-27T07:59:29.656Z,1008.90
2018-04-27T08:00:29.622Z,1009.05
2018-04-27T08:01:29.622Z,1008.99
2018-04-27T08:02:29.590Z,1009.10
2018-04-27T08:03:29.516Z,1009.04
2018-04-27T08:04:29.470Z,1008.95
2018-04-27T08:05:29.443Z,1009.08
2018-04-27T08:06:29.431Z,1009.08
2018-04-27T08:07:29.392Z,1009.08
2018-04-27T08:08:29.363Z,1008.98
2018-04-27T08:09:29.304Z,1008.97
2018-04-27T08:10:29.283Z,1008.93
2018-04-27T08:11:29.256Z,1009.03
2018-04-27T08:12:29.213Z,1008.98
2018-04-27T08:13:29.213Z,1008.89
2018-04-27T08:14:29.135Z,1008.89
2018-04-27T08:15:29.097Z,1008.91
2018-04-27T08:16:29.121Z,1008.86
2018-04-27T08:17:29.026Z,1008.92
2018-04-27T08:18:28.993Z,1008.95
2018-04-27T08:19:29.013Z,1009.02
2018-04-27T08:20:28.926Z,1009.01
2018-04-27T08:21:29.020Z,1009.02
2018-04-27T08:22:28.883Z,1009.10
2018-04-27T08:23:28.966Z,1009.14
2018-04-27T08:24:28.848Z,1009.06
2018-04-27T08:25:28.747Z,1009.09
2018-04-27T08:26:28.757Z,1009.01
2018-04-27T08:27:28.701Z,1008.93
2018-04-27T08:28:28.646Z,1008.91
2018-04-27T08:29:28.633Z,1008.93
2018-04-27T08:30:28.600Z,1008.86
2018-04-27T08:31:28.556Z,1008.86
2018-04-27T08:32:28.534Z,1008.90
2018-04-27T08:33:28.489Z,1008.95
2018-04-27T08:34:28.424Z,1008.91
2018-04-27T08:35:28.403Z,1008.92
2018-04-27T08:36:28.421Z,1008.99
2018-04-27T08:37:28.367Z,1009.03
2018-04-27T08:38:28.305Z,1008.98
2018-04-27T08:39:28.257Z,1009.01
2018-04-27T08:40:28.214Z,1008.99
2018-04-27T08:41:28.180Z,1009.00
2018-04-27T08:42:28.187Z,1009.21
2018-04-27T08:43:28.120Z,1008.99
2018-04-27T08:44:28.079Z,1009.06
2018-04-27T08:45:28.050Z,1008.94
2018-04-27T08:46:28.016Z,1008.91
2018-04-27T08:47:27.975Z,1008.97
2018-04-27T08:48:27.968Z,1008.71
2018-04-27T08:49:27.919Z,1008.57
2018-04-27T08:50:27.883Z,1008.60
2018-04-27T08:51:27.848Z,1008.66
2018-04-27T08:52:27.838Z,1008.69
2018-04-27T08:53:27.782Z,1008.74
2018-04-27T08:54:27.741Z,1008.68
2018-04-27T08:55:27.702Z,1008.70
2018-04-27T08:56:27.678Z,1008.70
2018-04-27T08:57:27.647Z,1008.69
2018-04-27T08:58:27.625Z,1008.68
2018-04-27T08:59:27.581Z,1008.66
2018-04-27T09:00:27.546Z,1008.65
2018-04-27T09:01:27.509Z,1008.67
2018-04-27T09:02:27.475Z,1008.59
2018-04-27T09:03:27.461Z,1008.59
2018-04-27T09:04:27.403Z,1008.64
2018-04-27T09:05:27.366Z,1008.67
2018-04-27T09:06:27.340Z,1008.57
2018-04-27T09:07:27.317Z,1008.53
2018-04-27T09:08:27.303Z,1008.48
2018-04-27T09:09:27.241Z,1008.53
2018-04-27T09:10:27.194Z,1008.46
2018-04-27T09:11:27.173Z,1008.45
2018-04-27T09:12:27.133Z,1008.34
2018-04-27T09:13:27.099Z,1008.37
2018-04-27T09:14:27.085Z,1008.42
2018-04-27T09:15:27.031Z,1008.40
2018-04-27T09:16:26.996Z,1008.46
2018-04-27T09:17:26.960Z,1008.47
2018-04-27T09:18:26.932Z,1008.35
2018-04-27T09:19:26.916Z,1008.50
2018-04-27T09:20:26.864Z,1008.43
2018-04-27T09:21:26.820Z,1008.37
2018-04-27T09:22:26.779Z,1008.36
2018-04-27T09:23:26.750Z,1008.37
2018-04-27T09:24:26.736Z,1008.37
2018-04-27T09:25:26.679Z,1008.44
2018-04-27T09:26:26.659Z,1008.43
2018-04-27T09:27:26.610Z,1008.41
2018-04-27T09:28:26.585Z,1008.40
2018-04-27T09:29:26.573Z,1008.34
2018-04-27T09:30:26.516Z,1008.37
2018-04-27T09:31:26.483Z,1008.39
2018-04-27T09:32:26.449Z,1008.30
2018-04-27T09:33:26.421Z,1008.38
2018-04-27T09:34:26.376Z,1008.43
2018-04-27T09:35:26.364Z,1008.43
2018-04-27T09:36:26.311Z,1008.31
2018-04-27T09:37:26.267Z,1008.30
2018-04-27T09:38:26.242Z,1008.37
2018-04-27T09:39:26.198Z,1008.29
2018-04-27T09:40:26.210Z,1008.24
2018-04-27T09:41:26.147Z,1008.19
2018-04-27T09:42:26.106Z,1008.20
2018-04-27T09:43:26.074Z,1008.17
2018-04-27T09:44:26.036Z,1008.14
2018-04-27T09:45:26.025Z,1008.17
2018-04-27T09:46:25.972Z,1008.14
2018-04-27T09:47:25.938Z,1008.21
2018-04-27T09:48:25.911Z,1008.14
2018-04-27T09:49:25.918Z,1008.08
2018-04-27T09:50:25.861Z,1008.06
2018-04-27T09:51:25.807Z,1008.07
2018-04-27T09:52:25.789Z,1008.11
2018-04-27T09:53:25.749Z,1008.12
2018-04-27T09:54:25.700Z,1008.09
2018-04-27T09:55:25.694Z,1008.00
2018-04-27T09:56:25.655Z,1007.87
2018-04-27T09:57:25.646Z,1007.92
2018-04-27T09:58:25.567Z,1007.95
2018-04-27T09:59:25.528Z,1007.94
2018-04-27T10:00:25.529Z,1007.83
2018-04-27T10:01:25.474Z,1007.85
2018-04-27T10:02:25.425Z,1007.94
2018-04-27T10:03:25.408Z,1007.87
2018-04-27T10:04:25.369Z,1007.98
2018-04-27T10:05:25.337Z,1007.99
2018-04-27T10:06:25.325Z,1008.00
2018-04-27T10:07:25.272Z,1008.06
2018-04-27T10:08:25.229Z,1007.76
2018-04-27T10:09:25.195Z,1007.75
2018-04-27T10:10:25.167Z,1007.63
2018-04-27T10:11:25.156Z,1007.58
2018-04-27T10:12:25.110Z,1007.56
2018-04-27T10:13:25.078Z,1007.52
2018-04-27T10:14:25.038Z,1007.69
2018-04-27T10:15:25.009Z,1007.68
2018-04-27T10:16:24.994Z,1007.72
2018-04-27T10:17:24.932Z,1007.69
2018-04-27T10:18:24.901Z,1007.63
2018-04-27T10:19:24.864Z,1007.54
2018-04-27T10:20:24.844Z,1007.51
2018-04-27T10:21:24.825Z,1007.65
2018-04-27T10:22:24.778Z,1007.75
2018-04-27T10:23:24.736Z,1007.79
2018-04-27T10:24:24.717Z,1007.73
2018-04-27T10:25:24.682Z,1007.64
2018-04-27T10:26:24.643Z,1007.52
2018-04-27T10:27:24.633Z,1007.40
2018-04-27T10:28:24.585Z,1007.33
2018-04-27T10:29:24.576Z,1007.33
2018-04-27T10:30:24.513Z,1007.31
2018-04-27T10:31:24.505Z,1007.22
2018-04-27T10:32:24.457Z,1007.19
2018-04-27T10:33:24.420Z,1007.19
2018-04-27T10:34:24.383Z,1007.19
2018-04-27T10:35:24.357Z,1007.17
2018-04-27T10:36:24.328Z,1007.15
2018-04-27T10:37:24.312Z,1007.15
2018-04-27T10:38:24.254Z,1007.18
2018-04-27T10:39:24.229Z,1007.17
2018-04-27T10:40:24.194Z,1007.23
2018-04-27T10:41:24.159Z,1007.34
2018-04-27T10:42:24.156Z,1007.40
2018-04-27T10:43:24.089Z,1007.30
2018-04-27T10:44:24.065Z,1007.33
2018-04-27T10:45:24.044Z,1007.28
2018-04-27T10:46:23.993Z,1007.29
2018-04-27T10:47:23.988Z,1007.33
2018-04-27T10:48:23.937Z,1007.24
2018-04-27T10:49:23.899Z,1007.26
2018-04-27T10:50:23.878Z,1007.20
2018-04-27T10:51:23.830Z,1007.16
2018-04-27T10:52:23.837Z,1007.13
2018-04-27T10:53:23.769Z,1007.02
2018-04-27T10:54:23.752Z,1006.98
2018-04-27T10:55:23.724Z,1007.03
2018-04-27T10:56:23.689Z,1006.98
2018-04-27T10:57:23.668Z,1006.97
2018-04-27T10:58:23.618Z,1006.94
2018-04-27T10:59:23.583Z,1006.97
2018-04-27T11:00:23.550Z,1006.98
2018-04-27T11:01:23.600Z,1006.94
2018-04-27T11:02:23.530Z,1006.92
2018-04-27T11:03:23.521Z,1006.84
2018-04-27T11:04:23.425Z,1006.83
2018-04-27T11:05:23.392Z,1006.80
2018-04-27T11:06:23.367Z,1006.79
2018-04-27T11:07:23.397Z,1006.70
2018-04-27T11:08:23.300Z,1006.67
2018-04-27T11:09:23.265Z,1006.63
2018-04-27T11:10:23.229Z,1006.63
2018-04-27T11:11:23.209Z,1006.68
2018-04-27T11:12:23.191Z,1006.63
2018-04-27T11:13:23.138Z,1006.58
2018-04-27T11:14:23.114Z,1006.58
2018-04-27T11:15:23.075Z,1006.53
2018-04-27T11:16:23.039Z,1006.54
2018-04-27T11:17:23.036Z,1006.59
2018-04-27T11:18:22.979Z,1006.58
2018-04-27T11:19:22.943Z,1006.55
2018-04-27T11:20:22.911Z,1006.54
2018-04-27T11:21:22.876Z,1006.58
2018-04-27T11:22:22.868Z,1006.93
2018-04-27T11:23:22.811Z,1006.88
2018-04-27T11:24:22.792Z,1006.88
2018-04-27T11:25:22.745Z,1006.77
2018-04-27T11:26:22.724Z,1006.63
2018-04-27T11:27:22.710Z,1006.65
2018-04-27T11:28:22.663Z,1006.62
2018-04-27T11:29:22.623Z,1006.80
2018-04-27T11:30:22.595Z,1006.61
2018-04-27T11:31:22.566Z,1006.71
2018-04-27T11:32:22.550Z,1006.76
2018-04-27T11:33:22.500Z,1006.69
2018-04-27T11:34:22.461Z,1006.77
2018-04-27T11:35:22.436Z,1006.48
2018-04-27T11:36:22.405Z,1006.43
2018-04-27T11:37:22.402Z,1006.49
2018-04-27T11:38:22.332Z,1006.54
2018-04-27T11:39:22.306Z,1006.57
2018-04-27T11:40:22.267Z,1006.52
2018-04-27T11:41:22.289Z,1006.53
2018-04-27T11:42:22.223Z,1006.50
2018-04-27T11:43:22.210Z,1006.42
2018-04-27T11:44:22.143Z,1006.48
2018-04-27T11:45:22.150Z,1006.49
2018-04-27T11:46:22.090Z,1006.58
2018-04-27T11:47:22.056Z,1006.36
2018-04-27T11:48:22.053Z,1006.27
2018-04-27T11:49:22.016Z,1006.00
2018-04-27T11:50:21.960Z,1006.22
2018-04-27T11:51:21.941Z,1006.30
2018-04-27T11:52:21.906Z,1006.20
2018-04-27T11:53:21.983Z,1005.90
2018-04-27T11:54:21.850Z,1005.88
2018-04-27T11:55:21.810Z,1005.95
2018-04-27T11:56:21.779Z,1005.82
2018-04-27T11:57:21.747Z,1005.75
2018-04-27T11:58:21.751Z,1005.76
2018-04-27T11:59:21.692Z,1005.67
2018-04-27T12:00:21.658Z,1005.67
2018-04-27T12:01:21.625Z,1005.60
2018-04-27T12:02:21.600Z,1005.57
2018-04-27T12:03:21.570Z,1005.56
2018-04-27T12:04:21.549Z,1005.67
2018-04-27T12:05:21.492Z,1005.63